Buoy 41580

sailwx.info

Track history (hours):
 
Tides and Currents Weather Stations Pressure Air Temp Water Temp Dewpoint Dewpoint Depression Visibility Wind Speed Wind Dir Waves Ship Positions

Drifting buoy 41580

Last reported at 2015-Apr-01 20:00 UTC. Time now 2015-Apr-02 00:13 UTC.
Position N 16°08' W 043°17'.

Barometer 1017.0 mb
Water temperature 24.7 ° C

Date/timePositionNaut miles runAvg speedWind from/ knotsBaromVisibWave heightAir tempDewpointWater temp
2015-Apr-01 20:00N 16°08' W 043°17'0 0.4 1017.0 24.7
2015-Apr-01 19:00N 16°08' W 043°17'0 0.0 1017.1 24.7
2015-Apr-01 17:00N 16°09' W 043°17'1 0.2 1017.5 24.7
2015-Apr-01 12:00N 16°09' W 043°18'0 0.2 1020.3 24.6
2015-Apr-01 11:00N 16°09' W 043°18'0 0.0 1019.6 24.6
2015-Apr-01 09:00N 16°09' W 043°18'1 0.8 1018.2 24.5
2015-Apr-01 08:00N 16°09' W 043°19'0 0.0 1017.8 24.5
2015-Apr-01 07:00N 16°09' W 043°19'2 0.5 1017.2 24.5
2015-Apr-01 04:00N 16°11' W 043°20'0 0.0 1018.6 24.6
2015-Apr-01 01:00N 16°11' W 043°20'0 0.0 1020.0 24.6
2015-Mar-31 05:00N 16°11' W 043°20'1 1.2 1016.9 24.6
2015-Mar-31 04:00N 16°10' W 043°21'1 0.3 1017.5 24.6
2015-Mar-31 00:00N 16°11' W 043°20'1 0.8 1018.2 24.6
2015-Mar-30 23:00N 16°11' W 043°21'0 0.0 1017.5 24.6
2015-Mar-30 22:00N 16°11' W 043°21'0 0.0 1016.5 24.6
2015-Mar-30 21:00N 16°11' W 043°21'0 0.2 1015.8 24.7
2015-Mar-30 19:00N 16°11' W 043°21'0 0.2 1015.3 24.8
2015-Mar-30 18:00N 16°11' W 043°21'0 0.0 1015.5 24.8
2015-Mar-30 17:00N 16°11' W 043°21'0 0.2 1015.8 24.8
2015-Mar-30 15:00N 16°11' W 043°21'1 0.3 1017.3 24.8
2015-Mar-30 13:00N 16°12' W 043°21'1 0.8 1018.1 24.6
2015-Mar-30 12:00N 16°12' W 043°21'0 0.1 1017.8 24.4
2015-Mar-30 09:00N 16°12' W 043°21'0 0.1 1016.6 24.4
2015-Mar-30 08:00N 16°12' W 043°21'0 0.1 1016.3 24.4
2015-Mar-30 07:00N 16°12' W 043°21'0 0.4 1016.1 24.4
2015-Mar-30 06:00N 16°12' W 043°21'0 0.0 1016.0 24.4
2015-Mar-30 05:00N 16°12' W 043°21'1 1.0 1016.4 24.5
2015-Mar-30 04:00N 16°12' W 043°23'0 0.0 1017.0 24.5
2015-Mar-30 03:00N 16°12' W 043°23'2 1.0 1018.0 24.5
2015-Mar-30 01:00N 16°10' W 043°23'1 1.1 1018.4 24.5
2015-Mar-30 00:00N 16°11' W 043°21'0 0.0 1018.3 24.5
2015-Mar-29 23:00N 16°11' W 043°21'0 0.0 1017.8 24.5
2015-Mar-29 22:00N 16°11' W 043°21'1 0.7 1017.1 24.5
2015-Mar-29 20:00N 16°12' W 043°22'1 1.0 1016.2 24.6
2015-Mar-29 19:00N 16°11' W 043°23'1 0.7 1016.0 24.6
2015-Mar-29 18:00N 16°12' W 043°23'0 0.0 1016.3 24.6
2015-Mar-29 17:00N 16°12' W 043°23'1 0.4 1016.7 24.7
2015-Mar-29 15:00N 16°12' W 043°24'0 0.0 1018.5 24.6
2015-Mar-29 13:00N 16°12' W 043°24'0 0.2 1019.6 24.4
2015-Mar-29 12:00N 16°12' W 043°24'0 0.0 1019.7 24.4
2015-Mar-29 11:00N 16°12' W 043°24'1 0.4 1019.4 24.4
2015-Mar-29 09:00N 16°12' W 043°23'1 0.3 1018.7 24.3
2015-Mar-29 07:00N 16°13' W 043°24'1 0.9 1018.2 24.4
2015-Mar-29 06:00N 16°12' W 043°24'0 0.0 1018.2 24.4
2015-Mar-29 05:00N 16°12' W 043°24'0 0.4 1018.5 24.4
2015-Mar-29 04:00N 16°12' W 043°25'1 0.2 1019.2 24.4
2015-Mar-28 22:00N 16°12' W 043°24'1 0.5 1019.7 24.5
2015-Mar-28 19:00N 16°11' W 043°25'2 0.6 1018.4 24.6
2015-Mar-28 16:00N 16°12' W 043°27'0 0.1 1019.6 24.5
2015-Mar-28 13:00N 16°12' W 043°27'1 0.7 1021.1 24.4
2015-Mar-28 11:00N 16°12' W 043°28'0 0.2 1020.8 24.3
2015-Mar-28 09:00N 16°12' W 043°28'1 1.4 1019.7 24.3
2015-Mar-28 08:00N 16°13' W 043°29'0 0.0 1018.8 24.3
2015-Mar-28 07:00N 16°13' W 043°29'0 0.1 1018.6 24.3
2015-Mar-28 06:00N 16°13' W 043°29'0 0.1 1018.5 24.3
2015-Mar-28 04:00N 16°13' W 043°29'1 0.2 1019.4 24.4
2015-Mar-28 01:00N 16°13' W 043°30'0 0.0 1020.2 24.3
2015-Mar-28 00:00N 16°13' W 043°30'1 1.4 1020.2 24.4
2015-Mar-27 23:00N 16°13' W 043°31'0 0.1 1019.6 24.4
2015-Mar-27 19:00N 16°14' W 043°31'1 0.5 1017.0 24.5
2015-Mar-27 17:00N 16°14' W 043°32'1 1.1 1017.6 24.5
2015-Mar-27 16:00N 16°15' W 043°33'0 0.1 1018.1 24.5
2015-Mar-27 13:00N 16°15' W 043°33'0 0.4 1019.6 24.4
2015-Mar-27 12:00N 16°15' W 043°33'0 0.0 1019.6 24.3
2015-Mar-27 11:00N 16°15' W 043°33'0 0.0 1019.2 24.3
2015-Mar-27 10:00N 16°15' W 043°33'1 0.4 1018.7 24.3
2015-Mar-27 07:00N 16°16' W 043°32'0 0.2 1017.1 24.3
2015-Mar-27 05:00N 16°16' W 043°33'0 0.2 1017.4 24.4
2015-Mar-27 04:00N 16°16' W 043°33'0 0.1 1018.1 24.4
2015-Mar-27 00:00N 16°17' W 043°33'1 0.6 1018.4 24.4
2015-Mar-26 22:00N 16°16' W 043°34'2 0.4 1017.2 24.5
2015-Mar-26 16:00N 16°18' W 043°35'3 0.3 1016.4 24.5
2015-Mar-26 08:00N 16°18' W 043°37'0 0.4 1016.7 24.3
2015-Mar-26 07:00N 16°19' W 043°37'0 0.0 1016.6 24.3
2015-Mar-26 05:00N 16°19' W 043°37'0 0.0 1017.1 24.3
2015-Mar-26 04:00N 16°19' W 043°37'1 0.2 1017.7 24.3
2015-Mar-26 00:00N 16°19' W 043°38'1 0.3 1018.1 24.4
2015-Mar-25 20:00N 16°18' W 043°38'0 0.1 1016.5 24.4
2015-Mar-25 16:00N 16°18' W 043°38'0 0.0 1017.5 24.5
2015-Mar-25 15:00N 16°18' W 043°38'1 0.2 1018.0 24.4
2015-Mar-25 09:00N 16°18' W 043°39'0 0.2 1018.3 24.3
2015-Mar-25 07:00N 16°17' W 043°39'0 0.2 1018.1 24.3
2015-Mar-25 06:00N 16°17' W 043°39'0 0.0 1018.2 24.3
2015-Mar-25 05:00N 16°17' W 043°39'0 0.0 1018.7 24.3
2015-Mar-25 04:00N 16°17' W 043°39'2 0.7 1019.1 24.4
2015-Mar-25 01:00N 16°18' W 043°41'5 0.7 1020.0 24.4
2015-Mar-24 18:00N 16°18' W 043°46'0 0.0 1018.3 24.5
2015-Mar-24 17:00N 16°18' W 043°46'2 0.4 1019.2 24.5
2015-Mar-24 13:00N 16°20' W 043°47'1 0.6 1020.8 24.4
2015-Mar-24 11:00N 16°21' W 043°47'0 0.0 1020.4 24.3
2015-Mar-24 10:00N 16°21' W 043°47'1 0.4 1019.6 24.3
2015-Mar-24 08:00N 16°22' W 043°48'4 0.4 1018.7 24.3
2015-Mar-23 22:00N 16°25' W 043°48'1 0.6 1019.3 24.5
2015-Mar-23 20:00N 16°26' W 043°47'1 0.3 1018.1 24.6
2015-Mar-23 17:00N 16°27' W 043°46'1 0.2 1018.3 24.6
2015-Mar-23 11:00N 16°27' W 043°47'0 0.0 1019.6 24.3
2015-Mar-23 10:00N 16°27' W 043°47'0 0.0 1018.9 24.3
2015-Mar-23 09:00N 16°27' W 043°47'1 0.7 1018.3 24.3
2015-Mar-23 07:00N 16°28' W 043°49'0 0.0 1017.5 24.3
2015-Mar-23 05:00N 16°28' W 043°49'1 1.2 1018.0 24.3
2015-Mar-23 04:00N 16°27' W 043°49'   1018.8 24.3
Track history (hours):
 
Tides and Currents Weather Stations Pressure Air Temp Water Temp Dewpoint Dewpoint Depression Visibility Wind Speed Wind Dir Waves Ship Positions

Drifting buoy 41580

Last reported at 2015-Apr-01 20:00 UTC. Time now 2015-Apr-02 00:13 UTC.
Position N 16°08' W 043°17'.

Barometer 1017.0 mb
Water temperature 24.7 ° C

Date/timePositionNaut miles runAvg speedWind from/ knotsBaromVisibWave heightAir tempDewpointWater temp
2015-Apr-01 20:00N 16°08' W 043°17'0 0.4 1017.0 24.7
2015-Apr-01 19:00N 16°08' W 043°17'0 0.0 1017.1 24.7
2015-Apr-01 17:00N 16°09' W 043°17'1 0.2 1017.5 24.7
2015-Apr-01 12:00N 16°09' W 043°18'0 0.2 1020.3 24.6
2015-Apr-01 11:00N 16°09' W 043°18'0 0.0 1019.6 24.6
2015-Apr-01 09:00N 16°09' W 043°18'1 0.8 1018.2 24.5
2015-Apr-01 08:00N 16°09' W 043°19'0 0.0 1017.8 24.5
2015-Apr-01 07:00N 16°09' W 043°19'2 0.5 1017.2 24.5
2015-Apr-01 04:00N 16°11' W 043°20'0 0.0 1018.6 24.6
2015-Apr-01 01:00N 16°11' W 043°20'0 0.0 1020.0 24.6
2015-Mar-31 05:00N 16°11' W 043°20'1 1.2 1016.9 24.6
2015-Mar-31 04:00N 16°10' W 043°21'1 0.3 1017.5 24.6
2015-Mar-31 00:00N 16°11' W 043°20'1 0.8 1018.2 24.6
2015-Mar-30 23:00N 16°11' W 043°21'0 0.0 1017.5 24.6
2015-Mar-30 22:00N 16°11' W 043°21'0 0.0 1016.5 24.6
2015-Mar-30 21:00N 16°11' W 043°21'0 0.2 1015.8 24.7
2015-Mar-30 19:00N 16°11' W 043°21'0 0.2 1015.3 24.8
2015-Mar-30 18:00N 16°11' W 043°21'0 0.0 1015.5 24.8
2015-Mar-30 17:00N 16°11' W 043°21'0 0.2 1015.8 24.8
2015-Mar-30 15:00N 16°11' W 043°21'1 0.3 1017.3 24.8
2015-Mar-30 13:00N 16°12' W 043°21'1 0.8 1018.1 24.6
2015-Mar-30 12:00N 16°12' W 043°21'0 0.1 1017.8 24.4
2015-Mar-30 09:00N 16°12' W 043°21'0 0.1 1016.6 24.4
2015-Mar-30 08:00N 16°12' W 043°21'0 0.1 1016.3 24.4
2015-Mar-30 07:00N 16°12' W 043°21'0 0.4 1016.1 24.4
2015-Mar-30 06:00N 16°12' W 043°21'0 0.0 1016.0 24.4
2015-Mar-30 05:00N 16°12' W 043°21'1 1.0 1016.4 24.5
2015-Mar-30 04:00N 16°12' W 043°23'0 0.0 1017.0 24.5
2015-Mar-30 03:00N 16°12' W 043°23'2 1.0 1018.0 24.5
2015-Mar-30 01:00N 16°10' W 043°23'1 1.1 1018.4 24.5
2015-Mar-30 00:00N 16°11' W 043°21'0 0.0 1018.3 24.5
2015-Mar-29 23:00N 16°11' W 043°21'0 0.0 1017.8 24.5
2015-Mar-29 22:00N 16°11' W 043°21'1 0.7 1017.1 24.5
2015-Mar-29 20:00N 16°12' W 043°22'1 1.0 1016.2 24.6
2015-Mar-29 19:00N 16°11' W 043°23'1 0.7 1016.0 24.6
2015-Mar-29 18:00N 16°12' W 043°23'0 0.0 1016.3 24.6
2015-Mar-29 17:00N 16°12' W 043°23'1 0.4 1016.7 24.7
2015-Mar-29 15:00N 16°12' W 043°24'0 0.0 1018.5 24.6
2015-Mar-29 13:00N 16°12' W 043°24'0 0.2 1019.6 24.4
2015-Mar-29 12:00N 16°12' W 043°24'0 0.0 1019.7 24.4
2015-Mar-29 11:00N 16°12' W 043°24'1 0.4 1019.4 24.4
2015-Mar-29 09:00N 16°12' W 043°23'1 0.3 1018.7 24.3
2015-Mar-29 07:00N 16°13' W 043°24'1 0.9 1018.2 24.4
2015-Mar-29 06:00N 16°12' W 043°24'0 0.0 1018.2 24.4
2015-Mar-29 05:00N 16°12' W 043°24'0 0.4 1018.5 24.4
2015-Mar-29 04:00N 16°12' W 043°25'1 0.2 1019.2 24.4
2015-Mar-28 22:00N 16°12' W 043°24'1 0.5 1019.7 24.5
2015-Mar-28 19:00N 16°11' W 043°25'2 0.6 1018.4 24.6
2015-Mar-28 16:00N 16°12' W 043°27'0 0.1 1019.6 24.5
2015-Mar-28 13:00N 16°12' W 043°27'1 0.7 1021.1 24.4
2015-Mar-28 11:00N 16°12' W 043°28'0 0.2 1020.8 24.3
2015-Mar-28 09:00N 16°12' W 043°28'1 1.4 1019.7 24.3
2015-Mar-28 08:00N 16°13' W 043°29'0 0.0 1018.8 24.3
2015-Mar-28 07:00N 16°13' W 043°29'0 0.1 1018.6 24.3
2015-Mar-28 06:00N 16°13' W 043°29'0 0.1 1018.5 24.3
2015-Mar-28 04:00N 16°13' W 043°29'1 0.2 1019.4 24.4
2015-Mar-28 01:00N 16°13' W 043°30'0 0.0 1020.2 24.3
2015-Mar-28 00:00N 16°13' W 043°30'1 1.4 1020.2 24.4
2015-Mar-27 23:00N 16°13' W 043°31'0 0.1 1019.6 24.4
2015-Mar-27 19:00N 16°14' W 043°31'1 0.5 1017.0 24.5
2015-Mar-27 17:00N 16°14' W 043°32'1 1.1 1017.6 24.5
2015-Mar-27 16:00N 16°15' W 043°33'0 0.1 1018.1 24.5
2015-Mar-27 13:00N 16°15' W 043°33'0 0.4 1019.6 24.4
2015-Mar-27 12:00N 16°15' W 043°33'0 0.0 1019.6 24.3
2015-Mar-27 11:00N 16°15' W 043°33'0 0.0 1019.2 24.3
2015-Mar-27 10:00N 16°15' W 043°33'1 0.4 1018.7 24.3
2015-Mar-27 07:00N 16°16' W 043°32'0 0.2 1017.1 24.3
2015-Mar-27 05:00N 16°16' W 043°33'0 0.2 1017.4 24.4
2015-Mar-27 04:00N 16°16' W 043°33'0 0.1 1018.1 24.4
2015-Mar-27 00:00N 16°17' W 043°33'1 0.6 1018.4 24.4
2015-Mar-26 22:00N 16°16' W 043°34'2 0.4 1017.2 24.5
2015-Mar-26 16:00N 16°18' W 043°35'3 0.3 1016.4 24.5
2015-Mar-26 08:00N 16°18' W 043°37'0 0.4 1016.7 24.3
2015-Mar-26 07:00N 16°19' W 043°37'0 0.0 1016.6 24.3
2015-Mar-26 05:00N 16°19' W 043°37'0 0.0 1017.1 24.3
2015-Mar-26 04:00N 16°19' W 043°37'1 0.2 1017.7 24.3
2015-Mar-26 00:00N 16°19' W 043°38'1 0.3 1018.1 24.4
2015-Mar-25 20:00N 16°18' W 043°38'0 0.1 1016.5 24.4
2015-Mar-25 16:00N 16°18' W 043°38'0 0.0 1017.5 24.5
2015-Mar-25 15:00N 16°18' W 043°38'1 0.2 1018.0 24.4
2015-Mar-25 09:00N 16°18' W 043°39'0 0.2 1018.3 24.3
2015-Mar-25 07:00N 16°17' W 043°39'0 0.2 1018.1 24.3
2015-Mar-25 06:00N 16°17' W 043°39'0 0.0 1018.2 24.3
2015-Mar-25 05:00N 16°17' W 043°39'0 0.0 1018.7 24.3
2015-Mar-25 04:00N 16°17' W 043°39'2 0.7 1019.1 24.4
2015-Mar-25 01:00N 16°18' W 043°41'5 0.7 1020.0 24.4
2015-Mar-24 18:00N 16°18' W 043°46'0 0.0 1018.3 24.5
2015-Mar-24 17:00N 16°18' W 043°46'2 0.4 1019.2 24.5
2015-Mar-24 13:00N 16°20' W 043°47'1 0.6 1020.8 24.4
2015-Mar-24 11:00N 16°21' W 043°47'0 0.0 1020.4 24.3
2015-Mar-24 10:00N 16°21' W 043°47'1 0.4 1019.6 24.3
2015-Mar-24 08:00N 16°22' W 043°48'4 0.4 1018.7 24.3
2015-Mar-23 22:00N 16°25' W 043°48'1 0.6 1019.3 24.5
2015-Mar-23 20:00N 16°26' W 043°47'1 0.3 1018.1 24.6
2015-Mar-23 17:00N 16°27' W 043°46'1 0.2 1018.3 24.6
2015-Mar-23 11:00N 16°27' W 043°47'0 0.0 1019.6 24.3
2015-Mar-23 10:00N 16°27' W 043°47'0 0.0 1018.9 24.3
2015-Mar-23 09:00N 16°27' W 043°47'1 0.7 1018.3 24.3
2015-Mar-23 07:00N 16°28' W 043°49'0 0.0 1017.5 24.3
2015-Mar-23 05:00N 16°28' W 043°49'1 1.2 1018.0 24.3
2015-Mar-23 04:00N 16°27' W 043°49'   1018.8 24.3

Dump ship's entire track history